sensor_id;sensor_type;location;lat;lon;timestamp;P1;durP1;ratioP1;P2;durP2;ratioP2
76405;SDS011;65234;50.044;19.258;2023-03-20T00:01:01;87.78;;;78.32;;
76405;SDS011;65234;50.044;19.258;2023-03-20T00:03:28;82.70;;;74.00;;
76405;SDS011;65234;50.044;19.258;2023-03-20T00:05:54;82.10;;;72.13;;
76405;SDS011;65234;50.044;19.258;2023-03-20T00:08:20;80.35;;;71.80;;
76405;SDS011;65234;50.044;19.258;2023-03-20T00:10:45;83.10;;;74.90;;
76405;SDS011;65234;50.044;19.258;2023-03-20T00:13:12;83.43;;;74.25;;
76405;SDS011;65234;50.044;19.258;2023-03-20T00:15:44;75.65;;;68.43;;
76405;SDS011;65234;50.044;19.258;2023-03-20T00:18:14;84.10;;;75.35;;
76405;SDS011;65234;50.044;19.258;2023-03-20T00:20:42;100.65;;;78.00;;
76405;SDS011;65234;50.044;19.258;2023-03-20T00:23:08;109.40;;;78.90;;
76405;SDS011;65234;50.044;19.258;2023-03-20T00:25:34;115.20;;;85.22;;
76405;SDS011;65234;50.044;19.258;2023-03-20T00:28:02;145.57;;;88.05;;
76405;SDS011;65234;50.044;19.258;2023-03-20T00:30:47;165.05;;;92.35;;
76405;SDS011;65234;50.044;19.258;2023-03-20T00:33:13;189.68;;;92.68;;
76405;SDS011;65234;50.044;19.258;2023-03-20T00:35:39;136.82;;;88.85;;
76405;SDS011;65234;50.044;19.258;2023-03-20T00:38:07;130.52;;;84.55;;
76405;SDS011;65234;50.044;19.258;2023-03-20T00:40:32;126.38;;;80.90;;
76405;SDS011;65234;50.044;19.258;2023-03-20T00:42:59;97.65;;;76.13;;
76405;SDS011;65234;50.044;19.258;2023-03-20T00:45:26;97.32;;;77.28;;
76405;SDS011;65234;50.044;19.258;2023-03-20T00:47:53;96.35;;;78.57;;
76405;SDS011;65234;50.044;19.258;2023-03-20T00:50:20;88.93;;;75.25;;
76405;SDS011;65234;50.044;19.258;2023-03-20T00:52:48;73.95;;;65.90;;
76405;SDS011;65234;50.044;19.258;2023-03-20T00:55:16;79.78;;;71.50;;
76405;SDS011;65234;50.044;19.258;2023-03-20T00:57:43;82.97;;;73.05;;
76405;SDS011;65234;50.044;19.258;2023-03-20T01:00:17;81.38;;;72.93;;
76405;SDS011;65234;50.044;19.258;2023-03-20T01:02:49;90.10;;;73.05;;
76405;SDS011;65234;50.044;19.258;2023-03-20T01:05:16;76.95;;;68.50;;
76405;SDS011;65234;50.044;19.258;2023-03-20T01:07:42;83.65;;;72.47;;
76405;SDS011;65234;50.044;19.258;2023-03-20T01:10:08;80.78;;;67.15;;
76405;SDS011;65234;50.044;19.258;2023-03-20T01:12:36;75.65;;;66.55;;
76405;SDS011;65234;50.044;19.258;2023-03-20T01:15:02;91.28;;;69.05;;
76405;SDS011;65234;50.044;19.258;2023-03-20T01:17:35;106.27;;;73.43;;
76405;SDS011;65234;50.044;19.258;2023-03-20T01:20:00;76.47;;;68.80;;
76405;SDS011;65234;50.044;19.258;2023-03-20T01:22:26;81.18;;;72.45;;
76405;SDS011;65234;50.044;19.258;2023-03-20T01:24:52;138.27;;;84.68;;
76405;SDS011;65234;50.044;19.258;2023-03-20T01:27:18;103.68;;;75.90;;
76405;SDS011;65234;50.044;19.258;2023-03-20T01:29:46;126.70;;;82.88;;
76405;SDS011;65234;50.044;19.258;2023-03-20T01:32:12;107.78;;;77.22;;
76405;SDS011;65234;50.044;19.258;2023-03-20T01:34:40;98.80;;;75.90;;
76405;SDS011;65234;50.044;19.258;2023-03-20T01:37:08;99.43;;;77.30;;
76405;SDS011;65234;50.044;19.258;2023-03-20T01:39:36;99.25;;;76.15;;
76405;SDS011;65234;50.044;19.258;2023-03-20T01:42:02;100.93;;;80.47;;
76405;SDS011;65234;50.044;19.258;2023-03-20T01:44:30;107.47;;;80.05;;
76405;SDS011;65234;50.044;19.258;2023-03-20T01:47:00;114.40;;;80.55;;
76405;SDS011;65234;50.044;19.258;2023-03-20T01:52:26;128.30;;;79.90;;
76405;SDS011;65234;50.044;19.258;2023-03-20T01:54:51;105.15;;;80.40;;
76405;SDS011;65234;50.044;19.258;2023-03-20T01:57:19;117.03;;;78.15;;
76405;SDS011;65234;50.044;19.258;2023-03-20T01:59:48;99.78;;;76.22;;
76405;SDS011;65234;50.044;19.258;2023-03-20T02:02:19;124.57;;;80.15;;
76405;SDS011;65234;50.044;19.258;2023-03-20T02:04:47;118.45;;;79.13;;
76405;SDS011;65234;50.044;19.258;2023-03-20T02:07:17;115.40;;;78.57;;
76405;SDS011;65234;50.044;19.258;2023-03-20T02:09:45;105.88;;;79.80;;
76405;SDS011;65234;50.044;19.258;2023-03-20T02:12:11;100.20;;;74.00;;
76405;SDS011;65234;50.044;19.258;2023-03-20T02:14:37;115.53;;;75.63;;
76405;SDS011;65234;50.044;19.258;2023-03-20T02:17:04;110.13;;;75.97;;
76405;SDS011;65234;50.044;19.258;2023-03-20T02:19:40;112.57;;;78.43;;
76405;SDS011;65234;50.044;19.258;2023-03-20T02:22:23;105.20;;;76.72;;
76405;SDS011;65234;50.044;19.258;2023-03-20T02:25:18;100.07;;;79.60;;
76405;SDS011;65234;50.044;19.258;2023-03-20T02:28:22;85.13;;;68.53;;
76405;SDS011;65234;50.044;19.258;2023-03-20T02:31:05;101.28;;;70.45;;
76405;SDS011;65234;50.044;19.258;2023-03-20T02:33:57;105.03;;;71.05;;
76405;SDS011;65234;50.044;19.258;2023-03-20T02:36:55;106.60;;;70.28;;
76405;SDS011;65234;50.044;19.258;2023-03-20T02:42:26;95.30;;;70.47;;
76405;SDS011;65234;50.044;19.258;2023-03-20T02:45:02;90.75;;;78.22;;
76405;SDS011;65234;50.044;19.258;2023-03-20T02:47:37;101.35;;;74.45;;
76405;SDS011;65234;50.044;19.258;2023-03-20T02:50:12;92.03;;;72.68;;
76405;SDS011;65234;50.044;19.258;2023-03-20T02:52:45;99.97;;;75.30;;
76405;SDS011;65234;50.044;19.258;2023-03-20T02:55:18;81.07;;;68.10;;
76405;SDS011;65234;50.044;19.258;2023-03-20T02:57:51;122.80;;;78.00;;
76405;SDS011;65234;50.044;19.258;2023-03-20T03:00:25;75.85;;;68.10;;
76405;SDS011;65234;50.044;19.258;2023-03-20T03:02:56;90.93;;;73.65;;
76405;SDS011;65234;50.044;19.258;2023-03-20T03:05:26;80.72;;;71.88;;
76405;SDS011;65234;50.044;19.258;2023-03-20T03:07:57;89.65;;;70.88;;
76405;SDS011;65234;50.044;19.258;2023-03-20T03:10:28;76.47;;;68.45;;
76405;SDS011;65234;50.044;19.258;2023-03-20T03:12:57;78.82;;;70.07;;
76405;SDS011;65234;50.044;19.258;2023-03-20T03:15:26;80.07;;;71.30;;
76405;SDS011;65234;50.044;19.258;2023-03-20T03:17:55;98.72;;;74.47;;
76405;SDS011;65234;50.044;19.258;2023-03-20T03:20:24;85.65;;;70.43;;
76405;SDS011;65234;50.044;19.258;2023-03-20T03:22:53;94.75;;;75.00;;
76405;SDS011;65234;50.044;19.258;2023-03-20T03:25:20;85.90;;;75.30;;
76405;SDS011;65234;50.044;19.258;2023-03-20T03:27:50;73.82;;;66.88;;
76405;SDS011;65234;50.044;19.258;2023-03-20T03:30:23;80.80;;;71.88;;
76405;SDS011;65234;50.044;19.258;2023-03-20T03:32:56;90.95;;;71.32;;
76405;SDS011;65234;50.044;19.258;2023-03-20T03:35:32;75.38;;;67.80;;
76405;SDS011;65234;50.044;19.258;2023-03-20T03:37:58;101.57;;;73.95;;
76405;SDS011;65234;50.044;19.258;2023-03-20T03:40:29;82.57;;;71.20;;
76405;SDS011;65234;50.044;19.258;2023-03-20T03:43:01;74.13;;;66.18;;
76405;SDS011;65234;50.044;19.258;2023-03-20T03:45:32;84.32;;;73.30;;
76405;SDS011;65234;50.044;19.258;2023-03-20T03:48:02;78.50;;;70.32;;
76405;SDS011;65234;50.044;19.258;2023-03-20T03:50:33;77.57;;;69.68;;
76405;SDS011;65234;50.044;19.258;2023-03-20T03:53:05;79.57;;;70.82;;
76405;SDS011;65234;50.044;19.258;2023-03-20T03:55:36;76.43;;;67.28;;
76405;SDS011;65234;50.044;19.258;2023-03-20T03:58:07;74.47;;;67.22;;
76405;SDS011;65234;50.044;19.258;2023-03-20T04:00:35;80.03;;;66.85;;
76405;SDS011;65234;50.044;19.258;2023-03-20T04:03:04;84.85;;;67.97;;
76405;SDS011;65234;50.044;19.258;2023-03-20T04:05:32;88.90;;;69.15;;
76405;SDS011;65234;50.044;19.258;2023-03-20T04:08:03;75.78;;;66.38;;
76405;SDS011;65234;50.044;19.258;2023-03-20T04:10:30;76.40;;;68.10;;
76405;SDS011;65234;50.044;19.258;2023-03-20T04:12:55;75.85;;;65.95;;
76405;SDS011;65234;50.044;19.258;2023-03-20T04:15:23;79.43;;;68.82;;
76405;SDS011;65234;50.044;19.258;2023-03-20T04:17:48;78.53;;;70.03;;
76405;SDS011;65234;50.044;19.258;2023-03-20T04:20:14;74.47;;;65.95;;
76405;SDS011;65234;50.044;19.258;2023-03-20T04:22:40;69.20;;;62.17;;
76405;SDS011;65234;50.044;19.258;2023-03-20T04:25:07;71.40;;;64.03;;
76405;SDS011;65234;50.044;19.258;2023-03-20T04:27:34;69.25;;;62.30;;
76405;SDS011;65234;50.044;19.258;2023-03-20T04:30:00;79.22;;;68.90;;
76405;SDS011;65234;50.044;19.258;2023-03-20T04:32:27;98.22;;;65.10;;
76405;SDS011;65234;50.044;19.258;2023-03-20T04:34:53;80.35;;;66.40;;
76405;SDS011;65234;50.044;19.258;2023-03-20T04:37:18;70.65;;;63.33;;
76405;SDS011;65234;50.044;19.258;2023-03-20T04:39:44;75.60;;;67.65;;
76405;SDS011;65234;50.044;19.258;2023-03-20T04:42:10;72.72;;;63.13;;
76405;SDS011;65234;50.044;19.258;2023-03-20T04:44:35;72.75;;;64.90;;
76405;SDS011;65234;50.044;19.258;2023-03-20T04:47:01;69.60;;;62.22;;
76405;SDS011;65234;50.044;19.258;2023-03-20T04:49:28;69.95;;;61.80;;
76405;SDS011;65234;50.044;19.258;2023-03-20T04:51:54;101.68;;;67.82;;
76405;SDS011;65234;50.044;19.258;2023-03-20T04:54:20;72.45;;;64.70;;
76405;SDS011;65234;50.044;19.258;2023-03-20T04:56:46;70.63;;;62.45;;
76405;SDS011;65234;50.044;19.258;2023-03-20T04:59:12;68.65;;;61.28;;
76405;SDS011;65234;50.044;19.258;2023-03-20T05:01:38;72.55;;;62.00;;
76405;SDS011;65234;50.044;19.258;2023-03-20T05:04:04;78.15;;;58.58;;
76405;SDS011;65234;50.044;19.258;2023-03-20T05:06:31;87.25;;;58.97;;
76405;SDS011;65234;50.044;19.258;2023-03-20T05:08:57;68.43;;;61.13;;
76405;SDS011;65234;50.044;19.258;2023-03-20T05:11:23;62.90;;;57.03;;
76405;SDS011;65234;50.044;19.258;2023-03-20T05:13:49;77.65;;;56.55;;
76405;SDS011;65234;50.044;19.258;2023-03-20T05:16:15;68.32;;;60.97;;
76405;SDS011;65234;50.044;19.258;2023-03-20T05:18:41;66.45;;;59.47;;
76405;SDS011;65234;50.044;19.258;2023-03-20T05:21:06;66.53;;;59.58;;
76405;SDS011;65234;50.044;19.258;2023-03-20T05:23:34;67.60;;;60.50;;
76405;SDS011;65234;50.044;19.258;2023-03-20T05:26:00;61.63;;;56.42;;
76405;SDS011;65234;50.044;19.258;2023-03-20T05:28:26;66.43;;;59.88;;
76405;SDS011;65234;50.044;19.258;2023-03-20T05:30:52;64.75;;;58.10;;
76405;SDS011;65234;50.044;19.258;2023-03-20T05:33:18;75.28;;;57.85;;
76405;SDS011;65234;50.044;19.258;2023-03-20T05:35:43;63.15;;;56.75;;
76405;SDS011;65234;50.044;19.258;2023-03-20T05:38:09;68.72;;;58.38;;
76405;SDS011;65234;50.044;19.258;2023-03-20T05:40:36;62.78;;;56.67;;
76405;SDS011;65234;50.044;19.258;2023-03-20T05:43:02;61.90;;;55.63;;
76405;SDS011;65234;50.044;19.258;2023-03-20T05:45:27;65.80;;;56.80;;
76405;SDS011;65234;50.044;19.258;2023-03-20T05:47:53;60.65;;;53.78;;
76405;SDS011;65234;50.044;19.258;2023-03-20T05:50:19;65.75;;;56.42;;
76405;SDS011;65234;50.044;19.258;2023-03-20T05:52:45;62.38;;;55.03;;
76405;SDS011;65234;50.044;19.258;2023-03-20T05:55:11;80.45;;;57.13;;
76405;SDS011;65234;50.044;19.258;2023-03-20T05:57:38;62.70;;;56.45;;
76405;SDS011;65234;50.044;19.258;2023-03-20T06:00:08;64.35;;;57.97;;
76405;SDS011;65234;50.044;19.258;2023-03-20T06:02:34;62.78;;;56.17;;
76405;SDS011;65234;50.044;19.258;2023-03-20T06:05:00;58.55;;;53.22;;
76405;SDS011;65234;50.044;19.258;2023-03-20T06:07:26;54.45;;;49.33;;
76405;SDS011;65234;50.044;19.258;2023-03-20T06:09:52;59.25;;;53.13;;
76405;SDS011;65234;50.044;19.258;2023-03-20T06:12:19;56.22;;;51.88;;
76405;SDS011;65234;50.044;19.258;2023-03-20T06:14:45;58.17;;;52.97;;
76405;SDS011;65234;50.044;19.258;2023-03-20T06:17:11;59.03;;;54.10;;
76405;SDS011;65234;50.044;19.258;2023-03-20T06:19:37;60.17;;;55.08;;
76405;SDS011;65234;50.044;19.258;2023-03-20T06:22:03;57.33;;;52.42;;
76405;SDS011;65234;50.044;19.258;2023-03-20T06:24:28;63.05;;;58.33;;
76405;SDS011;65234;50.044;19.258;2023-03-20T06:26:54;55.25;;;51.53;;
76405;SDS011;65234;50.044;19.258;2023-03-20T06:29:20;58.05;;;53.78;;
76405;SDS011;65234;50.044;19.258;2023-03-20T06:31:47;59.55;;;54.45;;
76405;SDS011;65234;50.044;19.258;2023-03-20T06:34:13;60.60;;;56.47;;
76405;SDS011;65234;50.044;19.258;2023-03-20T06:36:38;61.60;;;56.75;;
76405;SDS011;65234;50.044;19.258;2023-03-20T06:39:04;65.03;;;58.97;;
76405;SDS011;65234;50.044;19.258;2023-03-20T06:41:30;65.47;;;60.58;;
76405;SDS011;65234;50.044;19.258;2023-03-20T06:43:56;71.45;;;59.88;;
76405;SDS011;65234;50.044;19.258;2023-03-20T06:46:22;65.63;;;60.33;;
76405;SDS011;65234;50.044;19.258;2023-03-20T06:48:48;64.80;;;60.25;;
76405;SDS011;65234;50.044;19.258;2023-03-20T06:51:14;65.78;;;60.53;;
76405;SDS011;65234;50.044;19.258;2023-03-20T06:53:40;64.85;;;60.45;;
76405;SDS011;65234;50.044;19.258;2023-03-20T06:56:06;61.72;;;57.30;;
76405;SDS011;65234;50.044;19.258;2023-03-20T06:58:33;68.07;;;63.13;;
76405;SDS011;65234;50.044;19.258;2023-03-20T07:00:59;65.47;;;60.58;;
76405;SDS011;65234;50.044;19.258;2023-03-20T07:03:24;64.32;;;60.20;;
76405;SDS011;65234;50.044;19.258;2023-03-20T07:05:51;66.32;;;61.72;;
76405;SDS011;65234;50.044;19.258;2023-03-20T07:08:17;66.85;;;61.45;;
76405;SDS011;65234;50.044;19.258;2023-03-20T07:10:43;64.30;;;59.92;;
76405;SDS011;65234;50.044;19.258;2023-03-20T07:13:08;63.72;;;59.63;;
76405;SDS011;65234;50.044;19.258;2023-03-20T07:15:34;63.85;;;59.42;;
76405;SDS011;65234;50.044;19.258;2023-03-20T07:18:00;63.28;;;59.10;;
76405;SDS011;65234;50.044;19.258;2023-03-20T07:20:26;66.93;;;61.90;;
76405;SDS011;65234;50.044;19.258;2023-03-20T07:22:53;69.07;;;64.03;;
76405;SDS011;65234;50.044;19.258;2023-03-20T07:25:19;66.40;;;61.85;;
76405;SDS011;65234;50.044;19.258;2023-03-20T07:27:45;63.90;;;60.47;;
76405;SDS011;65234;50.044;19.258;2023-03-20T07:30:11;69.95;;;64.60;;
76405;SDS011;65234;50.044;19.258;2023-03-20T07:32:37;70.93;;;66.40;;
76405;SDS011;65234;50.044;19.258;2023-03-20T07:35:04;70.72;;;66.22;;
76405;SDS011;65234;50.044;19.258;2023-03-20T07:37:34;70.10;;;65.85;;
76405;SDS011;65234;50.044;19.258;2023-03-20T07:40:01;75.93;;;70.88;;
76405;SDS011;65234;50.044;19.258;2023-03-20T07:42:27;74.00;;;68.82;;
76405;SDS011;65234;50.044;19.258;2023-03-20T07:44:53;76.50;;;71.82;;
76405;SDS011;65234;50.044;19.258;2023-03-20T07:47:19;73.93;;;68.60;;
76405;SDS011;65234;50.044;19.258;2023-03-20T07:49:44;78.22;;;73.22;;
76405;SDS011;65234;50.044;19.258;2023-03-20T07:52:10;77.50;;;72.35;;
76405;SDS011;65234;50.044;19.258;2023-03-20T07:54:36;74.45;;;69.82;;
76405;SDS011;65234;50.044;19.258;2023-03-20T07:57:03;79.35;;;73.82;;
76405;SDS011;65234;50.044;19.258;2023-03-20T07:59:29;81.18;;;75.70;;
76405;SDS011;65234;50.044;19.258;2023-03-20T08:01:55;80.65;;;75.25;;
76405;SDS011;65234;50.044;19.258;2023-03-20T08:04:20;82.80;;;77.38;;
76405;SDS011;65234;50.044;19.258;2023-03-20T08:06:46;84.68;;;79.60;;
76405;SDS011;65234;50.044;19.258;2023-03-20T08:09:12;84.03;;;78.93;;
76405;SDS011;65234;50.044;19.258;2023-03-20T08:11:38;84.65;;;79.32;;
76405;SDS011;65234;50.044;19.258;2023-03-20T08:14:05;82.03;;;77.32;;
76405;SDS011;65234;50.044;19.258;2023-03-20T08:16:30;86.35;;;80.95;;
76405;SDS011;65234;50.044;19.258;2023-03-20T08:18:56;87.30;;;81.63;;
76405;SDS011;65234;50.044;19.258;2023-03-20T08:21:22;84.82;;;79.93;;
76405;SDS011;65234;50.044;19.258;2023-03-20T08:23:48;82.53;;;77.38;;
76405;SDS011;65234;50.044;19.258;2023-03-20T08:26:13;92.22;;;85.85;;
76405;SDS011;65234;50.044;19.258;2023-03-20T08:28:39;87.57;;;83.05;;
76405;SDS011;65234;50.044;19.258;2023-03-20T08:31:08;88.65;;;82.90;;
76405;SDS011;65234;50.044;19.258;2023-03-20T08:33:34;89.32;;;82.70;;
76405;SDS011;65234;50.044;19.258;2023-03-20T08:35:59;83.45;;;78.38;;
76405;SDS011;65234;50.044;19.258;2023-03-20T08:38:25;86.82;;;81.70;;
76405;SDS011;65234;50.044;19.258;2023-03-20T08:40:51;86.38;;;81.35;;
76405;SDS011;65234;50.044;19.258;2023-03-20T08:43:17;92.10;;;86.03;;
76405;SDS011;65234;50.044;19.258;2023-03-20T08:45:43;92.10;;;86.65;;
76405;SDS011;65234;50.044;19.258;2023-03-20T08:48:10;92.75;;;87.28;;
76405;SDS011;65234;50.044;19.258;2023-03-20T08:50:36;98.63;;;92.53;;
76405;SDS011;65234;50.044;19.258;2023-03-20T08:53:02;93.80;;;88.10;;
76405;SDS011;65234;50.044;19.258;2023-03-20T08:55:27;94.55;;;88.57;;
76405;SDS011;65234;50.044;19.258;2023-03-20T08:57:53;94.22;;;87.65;;
76405;SDS011;65234;50.044;19.258;2023-03-20T09:00:19;95.35;;;89.35;;
76405;SDS011;65234;50.044;19.258;2023-03-20T09:02:45;96.10;;;89.47;;
76405;SDS011;65234;50.044;19.258;2023-03-20T09:05:12;98.82;;;92.13;;
76405;SDS011;65234;50.044;19.258;2023-03-20T09:07:38;99.35;;;93.18;;
76405;SDS011;65234;50.044;19.258;2023-03-20T09:10:04;98.82;;;92.32;;
76405;SDS011;65234;50.044;19.258;2023-03-20T09:12:31;98.25;;;91.82;;
76405;SDS011;65234;50.044;19.258;2023-03-20T09:14:57;98.50;;;92.32;;
76405;SDS011;65234;50.044;19.258;2023-03-20T09:17:23;102.53;;;95.70;;
76405;SDS011;65234;50.044;19.258;2023-03-20T09:19:49;97.95;;;92.10;;
76405;SDS011;65234;50.044;19.258;2023-03-20T09:22:16;102.95;;;96.57;;
76405;SDS011;65234;50.044;19.258;2023-03-20T09:24:41;98.18;;;91.63;;
76405;SDS011;65234;50.044;19.258;2023-03-20T09:27:10;99.00;;;92.70;;
76405;SDS011;65234;50.044;19.258;2023-03-20T09:29:36;97.03;;;91.15;;
76405;SDS011;65234;50.044;19.258;2023-03-20T09:32:02;95.85;;;90.35;;
76405;SDS011;65234;50.044;19.258;2023-03-20T09:34:28;99.53;;;93.45;;
76405;SDS011;65234;50.044;19.258;2023-03-20T09:36:54;100.00;;;93.55;;
76405;SDS011;65234;50.044;19.258;2023-03-20T09:39:21;99.95;;;94.00;;
76405;SDS011;65234;50.044;19.258;2023-03-20T09:41:47;99.50;;;93.22;;
76405;SDS011;65234;50.044;19.258;2023-03-20T09:44:15;103.75;;;96.97;;
76405;SDS011;65234;50.044;19.258;2023-03-20T09:47:02;103.82;;;97.38;;
76405;SDS011;65234;50.044;19.258;2023-03-20T09:52:07;96.63;;;90.70;;
76405;SDS011;65234;50.044;19.258;2023-03-20T09:54:44;104.43;;;97.88;;
76405;SDS011;65234;50.044;19.258;2023-03-20T09:57:16;104.38;;;97.15;;
76405;SDS011;65234;50.044;19.258;2023-03-20T09:59:45;109.00;;;102.45;;
76405;SDS011;65234;50.044;19.258;2023-03-20T10:02:13;102.10;;;96.10;;
76405;SDS011;65234;50.044;19.258;2023-03-20T10:04:42;109.10;;;101.70;;
76405;SDS011;65234;50.044;19.258;2023-03-20T10:07:11;106.90;;;100.57;;
76405;SDS011;65234;50.044;19.258;2023-03-20T10:09:41;109.80;;;103.20;;
76405;SDS011;65234;50.044;19.258;2023-03-20T10:12:12;105.85;;;100.15;;
76405;SDS011;65234;50.044;19.258;2023-03-20T10:14:49;107.75;;;101.63;;
76405;SDS011;65234;50.044;19.258;2023-03-20T10:17:34;109.10;;;102.25;;
76405;SDS011;65234;50.044;19.258;2023-03-20T10:20:10;105.50;;;99.25;;
76405;SDS011;65234;50.044;19.258;2023-03-20T10:22:38;109.18;;;102.50;;
76405;SDS011;65234;50.044;19.258;2023-03-20T10:25:15;105.07;;;98.63;;
76405;SDS011;65234;50.044;19.258;2023-03-20T10:27:49;108.45;;;101.95;;
76405;SDS011;65234;50.044;19.258;2023-03-20T10:30:22;105.72;;;99.22;;
76405;SDS011;65234;50.044;19.258;2023-03-20T10:32:59;106.43;;;99.43;;
76405;SDS011;65234;50.044;19.258;2023-03-20T10:35:37;102.38;;;96.30;;
76405;SDS011;65234;50.044;19.258;2023-03-20T10:38:11;106.20;;;99.78;;
76405;SDS011;65234;50.044;19.258;2023-03-20T10:40:45;105.75;;;98.38;;
76405;SDS011;65234;50.044;19.258;2023-03-20T10:43:15;107.35;;;100.93;;
76405;SDS011;65234;50.044;19.258;2023-03-20T10:45:45;105.78;;;99.82;;
76405;SDS011;65234;50.044;19.258;2023-03-20T10:48:18;108.78;;;101.78;;
76405;SDS011;65234;50.044;19.258;2023-03-20T10:50:49;103.88;;;97.55;;
76405;SDS011;65234;50.044;19.258;2023-03-20T10:53:21;105.50;;;98.30;;
76405;SDS011;65234;50.044;19.258;2023-03-20T10:55:50;114.18;;;106.13;;
76405;SDS011;65234;50.044;19.258;2023-03-20T10:58:20;111.53;;;104.38;;
76405;SDS011;65234;50.044;19.258;2023-03-20T11:00:48;112.07;;;104.95;;
76405;SDS011;65234;50.044;19.258;2023-03-20T11:03:16;114.30;;;107.53;;
76405;SDS011;65234;50.044;19.258;2023-03-20T11:05:48;114.28;;;108.13;;
76405;SDS011;65234;50.044;19.258;2023-03-20T11:08:17;118.47;;;111.25;;
76405;SDS011;65234;50.044;19.258;2023-03-20T11:10:51;121.32;;;113.95;;
76405;SDS011;65234;50.044;19.258;2023-03-20T11:13:25;124.55;;;117.50;;
76405;SDS011;65234;50.044;19.258;2023-03-20T11:15:54;124.88;;;117.72;;
76405;SDS011;65234;50.044;19.258;2023-03-20T11:18:22;124.57;;;117.25;;
76405;SDS011;65234;50.044;19.258;2023-03-20T11:20:50;122.70;;;115.82;;
76405;SDS011;65234;50.044;19.258;2023-03-20T11:23:18;121.10;;;114.20;;
76405;SDS011;65234;50.044;19.258;2023-03-20T11:25:49;123.63;;;116.07;;
76405;SDS011;65234;50.044;19.258;2023-03-20T11:28:25;125.75;;;118.15;;
76405;SDS011;65234;50.044;19.258;2023-03-20T11:30:56;125.30;;;118.38;;
76405;SDS011;65234;50.044;19.258;2023-03-20T11:33:25;126.00;;;118.57;;
76405;SDS011;65234;50.044;19.258;2023-03-20T11:35:52;124.80;;;117.88;;
76405;SDS011;65234;50.044;19.258;2023-03-20T11:38:20;124.03;;;117.28;;
76405;SDS011;65234;50.044;19.258;2023-03-20T11:40:46;128.32;;;121.00;;
76405;SDS011;65234;50.044;19.258;2023-03-20T11:43:17;132.85;;;125.07;;
76405;SDS011;65234;50.044;19.258;2023-03-20T11:45:47;129.43;;;122.32;;
76405;SDS011;65234;50.044;19.258;2023-03-20T11:48:16;130.65;;;123.72;;
76405;SDS011;65234;50.044;19.258;2023-03-20T11:50:44;132.38;;;124.75;;
76405;SDS011;65234;50.044;19.258;2023-03-20T11:53:18;126.38;;;118.85;;
76405;SDS011;65234;50.044;19.258;2023-03-20T11:55:56;127.80;;;120.70;;
76405;SDS011;65234;50.044;19.258;2023-03-20T11:58:26;128.23;;;121.15;;
76405;SDS011;65234;50.044;19.258;2023-03-20T12:00:53;130.10;;;122.30;;
76405;SDS011;65234;50.044;19.258;2023-03-20T12:03:33;126.90;;;119.53;;
76405;SDS011;65234;50.044;19.258;2023-03-20T12:06:04;128.43;;;121.40;;
76405;SDS011;65234;50.044;19.258;2023-03-20T12:08:31;124.25;;;117.75;;
76405;SDS011;65234;50.044;19.258;2023-03-20T12:11:05;120.85;;;114.70;;
76405;SDS011;65234;50.044;19.258;2023-03-20T12:13:39;122.60;;;115.38;;
76405;SDS011;65234;50.044;19.258;2023-03-20T12:16:10;128.98;;;122.07;;
76405;SDS011;65234;50.044;19.258;2023-03-20T12:18:39;125.93;;;118.77;;
76405;SDS011;65234;50.044;19.258;2023-03-20T12:21:09;124.85;;;118.05;;
76405;SDS011;65234;50.044;19.258;2023-03-20T12:23:40;130.50;;;123.28;;
76405;SDS011;65234;50.044;19.258;2023-03-20T12:26:10;125.90;;;119.28;;
76405;SDS011;65234;50.044;19.258;2023-03-20T12:28:39;127.63;;;121.18;;
76405;SDS011;65234;50.044;19.258;2023-03-20T12:33:48;125.15;;;118.70;;
76405;SDS011;65234;50.044;19.258;2023-03-20T12:36:22;133.18;;;126.18;;
76405;SDS011;65234;50.044;19.258;2023-03-20T12:38:53;133.88;;;127.05;;
76405;SDS011;65234;50.044;19.258;2023-03-20T12:41:21;139.90;;;133.20;;
76405;SDS011;65234;50.044;19.258;2023-03-20T12:43:56;144.27;;;136.73;;
76405;SDS011;65234;50.044;19.258;2023-03-20T12:46:44;139.07;;;131.90;;
76405;SDS011;65234;50.044;19.258;2023-03-20T12:49:21;143.27;;;135.85;;
76405;SDS011;65234;50.044;19.258;2023-03-20T12:51:57;142.23;;;135.40;;
76405;SDS011;65234;50.044;19.258;2023-03-20T12:54:34;143.48;;;136.85;;
76405;SDS011;65234;50.044;19.258;2023-03-20T12:57:12;147.43;;;139.93;;
76405;SDS011;65234;50.044;19.258;2023-03-20T12:59:50;146.80;;;139.02;;
76405;SDS011;65234;50.044;19.258;2023-03-20T13:02:32;150.10;;;142.43;;
76405;SDS011;65234;50.044;19.258;2023-03-20T13:05:08;146.30;;;138.10;;
76405;SDS011;65234;50.044;19.258;2023-03-20T13:07:49;150.02;;;142.68;;
76405;SDS011;65234;50.044;19.258;2023-03-20T13:10:25;153.40;;;145.50;;
76405;SDS011;65234;50.044;19.258;2023-03-20T13:12:59;158.27;;;149.65;;
76405;SDS011;65234;50.044;19.258;2023-03-20T13:15:37;153.90;;;145.77;;
76405;SDS011;65234;50.044;19.258;2023-03-20T13:18:16;151.05;;;143.75;;
76405;SDS011;65234;50.044;19.258;2023-03-20T13:20:49;157.73;;;149.45;;
76405;SDS011;65234;50.044;19.258;2023-03-20T13:23:22;152.55;;;144.95;;
76405;SDS011;65234;50.044;19.258;2023-03-20T13:25:53;151.98;;;144.68;;
76405;SDS011;65234;50.044;19.258;2023-03-20T13:28:29;152.43;;;145.13;;
76405;SDS011;65234;50.044;19.258;2023-03-20T13:31:03;149.10;;;141.95;;
76405;SDS011;65234;50.044;19.258;2023-03-20T13:33:43;148.68;;;141.05;;
76405;SDS011;65234;50.044;19.258;2023-03-20T13:36:19;151.20;;;143.55;;
76405;SDS011;65234;50.044;19.258;2023-03-20T13:38:57;151.95;;;144.23;;
76405;SDS011;65234;50.044;19.258;2023-03-20T13:41:25;151.88;;;144.35;;
76405;SDS011;65234;50.044;19.258;2023-03-20T13:43:52;147.13;;;140.02;;
76405;SDS011;65234;50.044;19.258;2023-03-20T13:46:23;145.88;;;138.90;;
76405;SDS011;65234;50.044;19.258;2023-03-20T13:48:55;145.77;;;138.75;;
76405;SDS011;65234;50.044;19.258;2023-03-20T13:51:28;141.63;;;134.88;;
76405;SDS011;65234;50.044;19.258;2023-03-20T13:54:00;143.43;;;135.93;;
76405;SDS011;65234;50.044;19.258;2023-03-20T13:56:39;138.55;;;131.48;;
76405;SDS011;65234;50.044;19.258;2023-03-20T13:59:36;140.63;;;133.23;;
76405;SDS011;65234;50.044;19.258;2023-03-20T14:02:14;140.93;;;133.65;;
76405;SDS011;65234;50.044;19.258;2023-03-20T14:04:56;138.30;;;131.63;;
76405;SDS011;65234;50.044;19.258;2023-03-20T14:07:27;141.77;;;134.23;;
76405;SDS011;65234;50.044;19.258;2023-03-20T14:09:54;140.63;;;133.07;;
76405;SDS011;65234;50.044;19.258;2023-03-20T14:12:22;133.10;;;126.32;;
76405;SDS011;65234;50.044;19.258;2023-03-20T14:14:51;135.63;;;128.68;;
76405;SDS011;65234;50.044;19.258;2023-03-20T14:17:20;133.48;;;127.00;;
76405;SDS011;65234;50.044;19.258;2023-03-20T14:19:49;132.73;;;125.68;;
76405;SDS011;65234;50.044;19.258;2023-03-20T14:22:19;133.77;;;126.90;;
76405;SDS011;65234;50.044;19.258;2023-03-20T14:24:50;127.57;;;120.68;;